createdAt,value
2023-01-19T00:01:16.314Z,99523.58
2023-01-19T00:06:25.962Z,99528.63
2023-01-19T00:11:33.642Z,99534.00
2023-01-19T00:16:41.379Z,99541.05
2023-01-19T00:21:48.830Z,99543.21
2023-01-19T00:26:56.195Z,99550.53
2023-01-19T00:32:04.772Z,99558.75
2023-01-19T00:37:13.750Z,99557.89
2023-01-19T00:42:44.542Z,99564.38
2023-01-19T00:47:57.432Z,99572.09
2023-01-19T00:53:05.283Z,99576.96
2023-01-19T00:58:12.781Z,99568.41
2023-01-19T01:03:20.314Z,99572.77
2023-01-19T01:08:28.394Z,99582.86
2023-01-19T01:13:35.780Z,99593.00
2023-01-19T01:18:43.615Z,99590.58
2023-01-19T01:23:51.148Z,99589.73
2023-01-19T01:29:01.107Z,99593.36
2023-01-19T01:34:08.944Z,99609.20
2023-01-19T01:39:14.742Z,99617.77
2023-01-19T01:44:51.748Z,99623.46
2023-01-19T01:50:04.898Z,99625.11
2023-01-19T01:55:14.624Z,99638.84
2023-01-19T02:00:22.885Z,99651.34
2023-01-19T02:05:34.339Z,99659.55
2023-01-19T02:11:00.107Z,99666.19
2023-01-19T02:16:10.731Z,99670.92
2023-01-19T02:21:24.236Z,99671.11
2023-01-19T02:26:35.882Z,99677.10
2023-01-19T02:31:45.582Z,99669.63
2023-01-19T02:36:57.820Z,99656.55
2023-01-19T02:42:09.772Z,99662.92
2023-01-19T02:47:20.023Z,99666.05
2023-01-19T02:52:29.385Z,99667.38
2023-01-19T02:58:02.430Z,99672.13
2023-01-19T03:03:24.745Z,99683.20
2023-01-19T03:08:45.274Z,99688.73
2023-01-19T03:13:56.151Z,99688.50
2023-01-19T03:19:10.191Z,99678.19
2023-01-19T03:24:20.347Z,99675.23
2023-01-19T03:29:34.967Z,99681.86
2023-01-19T03:34:44.984Z,99683.48
2023-01-19T03:39:52.936Z,99679.36
2023-01-19T03:45:04.910Z,99683.44
2023-01-19T03:50:25.319Z,99688.54
2023-01-19T03:55:33.119Z,99690.54
2023-01-19T04:00:43.409Z,99695.42
2023-01-19T04:05:51.670Z,99691.61
2023-01-19T04:11:00.488Z,99702.73
2023-01-19T04:16:08.986Z,99705.58
2023-01-19T04:21:16.339Z,99704.33
2023-01-19T04:26:24.995Z,99704.04
2023-01-19T04:31:33.082Z,99703.86
2023-01-19T04:36:41.007Z,99694.33
2023-01-19T04:41:48.572Z,99692.61
2023-01-19T04:46:56.177Z,99698.95
2023-01-19T04:52:03.871Z,99705.27
2023-01-19T04:57:11.471Z,99708.00
2023-01-19T05:02:19.051Z,99716.14
2023-01-19T05:07:26.472Z,99720.16
2023-01-19T05:12:33.819Z,99723.80
2023-01-19T05:17:41.255Z,99720.77
2023-01-19T05:22:53.712Z,99720.79
2023-01-19T05:28:00.923Z,99726.02
2023-01-19T05:33:08.089Z,99729.13
2023-01-19T05:38:17.040Z,99731.20
2023-01-19T05:43:26.507Z,99732.38
2023-01-19T05:48:33.834Z,99741.65
2023-01-19T05:53:41.159Z,99751.59
2023-01-19T05:58:48.564Z,99750.70
2023-01-19T06:03:55.893Z,99749.09
2023-01-19T06:09:03.108Z,99752.02
2023-01-19T06:14:10.661Z,99755.80
2023-01-19T06:19:17.817Z,99763.59
2023-01-19T06:24:25.429Z,99777.23
2023-01-19T06:29:33.030Z,99806.30
2023-01-19T06:34:43.988Z,99825.76
2023-01-19T06:39:51.449Z,99835.76
2023-01-19T06:44:59.910Z,99854.11
2023-01-19T06:50:07.930Z,99870.60
2023-01-19T06:55:16.372Z,99877.45
2023-01-19T07:00:32.805Z,99888.98
2023-01-19T07:05:50.619Z,99900.68
2023-01-19T07:11:23.193Z,99905.75
2023-01-19T07:16:37.181Z,99907.72
2023-01-19T07:21:53.851Z,99908.15
2023-01-19T07:27:01.072Z,99916.52
2023-01-19T07:32:19.509Z,99919.87
2023-01-19T07:37:28.307Z,99925.15
2023-01-19T07:42:35.642Z,99929.73
2023-01-19T07:47:43.908Z,99937.10
2023-01-19T07:52:53.717Z,99938.17
2023-01-19T07:58:00.923Z,99947.31
2023-01-19T08:03:09.415Z,99953.77
2023-01-19T08:08:16.787Z,99950.37
2023-01-19T08:13:24.083Z,99947.93
2023-01-19T08:18:31.293Z,99941.57
2023-01-19T08:23:38.481Z,99944.21
2023-01-19T08:28:45.623Z,99943.73
2023-01-19T08:33:52.749Z,99950.65
2023-01-19T08:38:59.893Z,99957.55
2023-01-19T08:44:07.357Z,99963.41
2023-01-19T08:49:14.667Z,99964.57
2023-01-19T08:54:23.289Z,99961.74
2023-01-19T08:59:30.418Z,99961.67
2023-01-19T09:04:38.186Z,99957.35
2023-01-19T09:09:45.375Z,99959.98
2023-01-19T09:14:52.508Z,99962.53
2023-01-19T09:19:59.672Z,99963.14
2023-01-19T09:25:11.894Z,99960.02
2023-01-19T09:30:20.240Z,99958.80
2023-01-19T09:35:27.536Z,99965.22
2023-01-19T09:40:35.211Z,99965.48
2023-01-19T09:45:50.333Z,99973.16
2023-01-19T09:51:00.696Z,99983.50
2023-01-19T09:56:09.647Z,99976.97
2023-01-19T10:01:35.276Z,99964.89
2023-01-19T10:06:43.485Z,99954.08
2023-01-19T10:11:57.941Z,99947.90
2023-01-19T10:17:18.273Z,99947.27
2023-01-19T10:22:28.084Z,99947.65
2023-01-19T10:27:37.826Z,99944.39
2023-01-19T10:32:45.746Z,99947.83
2023-01-19T10:37:54.931Z,99948.44
2023-01-19T10:43:02.587Z,99949.02
2023-01-19T10:48:13.652Z,99945.89
2023-01-19T10:53:25.936Z,99946.40
2023-01-19T10:58:36.347Z,99957.42
2023-01-19T11:03:43.748Z,99963.64
2023-01-19T11:08:52.394Z,99967.30
2023-01-19T11:14:14.229Z,99968.62
2023-01-19T11:19:30.241Z,99968.84
2023-01-19T11:24:40.311Z,99965.70
2023-01-19T11:29:55.433Z,99959.02
2023-01-19T11:35:02.768Z,99952.33
2023-01-19T11:40:14.336Z,99952.77
2023-01-19T11:45:22.833Z,99947.05
2023-01-19T11:50:34.449Z,99945.80
2023-01-19T11:55:48.994Z,99944.25
2023-01-19T12:01:00.522Z,99946.92
2023-01-19T12:06:12.192Z,99948.23
2023-01-19T12:11:24.163Z,99952.16
2023-01-19T12:16:34.106Z,99954.83
2023-01-19T12:21:41.468Z,99956.61
2023-01-19T12:26:54.453Z,99955.33
2023-01-19T12:32:20.670Z,99957.30
2023-01-19T12:37:42.037Z,99954.43
2023-01-19T12:42:56.349Z,99949.36
2023-01-19T12:48:05.367Z,99946.95
2023-01-19T12:53:22.671Z,99942.16
2023-01-19T12:58:32.034Z,99935.34
2023-01-19T13:03:57.023Z,99931.50
2023-01-19T13:09:04.450Z,99935.95
2023-01-19T13:14:34.972Z,99933.83
2023-01-19T13:20:12.705Z,99942.05
2023-01-19T13:25:31.468Z,99950.02
2023-01-19T13:30:46.218Z,99950.21
2023-01-19T13:35:57.025Z,99952.12
2023-01-19T13:41:07.739Z,99950.15
2023-01-19T13:46:17.508Z,99945.00
2023-01-19T13:51:24.882Z,99950.92
2023-01-19T13:56:32.981Z,99954.07
2023-01-19T14:01:40.218Z,99958.82
2023-01-19T14:06:49.815Z,99961.02
2023-01-19T14:12:16.378Z,99962.86
2023-01-19T14:17:29.103Z,99967.66
2023-01-19T14:22:45.520Z,99970.60
2023-01-19T14:27:53.079Z,99970.64
2023-01-19T14:33:00.219Z,99977.77
2023-01-19T14:38:16.202Z,99987.58
2023-01-19T14:43:27.582Z,99991.41
2023-01-19T14:48:34.772Z,99995.30
2023-01-19T14:53:48.043Z,99999.71
2023-01-19T14:58:56.159Z,99996.83
2023-01-19T15:04:01.798Z,100003.95
2023-01-19T15:09:10.314Z,100004.02
2023-01-19T15:14:18.891Z,100007.67
2023-01-19T15:19:26.007Z,100012.78
2023-01-19T15:24:33.211Z,100017.50
2023-01-19T15:29:41.529Z,100019.93
2023-01-19T15:34:48.718Z,100017.41
2023-01-19T15:39:56.064Z,100010.42
2023-01-19T15:45:19.488Z,100014.95
2023-01-19T15:50:27.690Z,100018.33
2023-01-19T15:55:35.028Z,100018.39
2023-01-19T16:00:42.552Z,100024.38
2023-01-19T16:05:50.020Z,100028.34
2023-01-19T16:10:57.182Z,100031.27
2023-01-19T16:16:08.826Z,100032.37
2023-01-19T16:21:16.051Z,100041.58
2023-01-19T16:26:35.068Z,100047.95
2023-01-19T16:31:45.583Z,100055.60
2023-01-19T16:36:52.808Z,100054.33
2023-01-19T16:42:00.008Z,100059.95
2023-01-19T16:47:07.473Z,100055.81
2023-01-19T16:52:14.766Z,100054.17
2023-01-19T16:57:21.901Z,100055.95
2023-01-19T17:02:29.110Z,100064.90
2023-01-19T17:07:36.555Z,100071.23
2023-01-19T17:12:43.794Z,100067.74
2023-01-19T17:17:50.944Z,100070.84
2023-01-19T17:22:58.059Z,100065.84
2023-01-19T17:28:05.352Z,100066.53
2023-01-19T17:33:12.830Z,100073.09
2023-01-19T17:38:20.061Z,100082.23
2023-01-19T17:43:27.294Z,100091.05
2023-01-19T17:48:34.476Z,100103.13
2023-01-19T17:53:43.079Z,100101.75
2023-01-19T17:58:50.937Z,100097.88
2023-01-19T18:03:58.996Z,100104.15
2023-01-19T18:09:07.641Z,100114.11
2023-01-19T18:14:14.788Z,100117.70
2023-01-19T18:19:23.083Z,100120.37
2023-01-19T18:24:30.335Z,100118.17
2023-01-19T18:29:37.489Z,100122.92
2023-01-19T18:34:46.262Z,100127.98
2023-01-19T18:39:59.930Z,100131.95
2023-01-19T18:45:11.185Z,100131.69
2023-01-19T18:50:18.870Z,100131.70
2023-01-19T18:55:26.080Z,100132.05
2023-01-19T19:00:33.256Z,100124.45
2023-01-19T19:05:40.665Z,100127.72
2023-01-19T19:10:48.134Z,100131.59
2023-01-19T19:15:57.099Z,100135.39
2023-01-19T19:21:06.749Z,100132.90
2023-01-19T19:26:14.852Z,100131.55
2023-01-19T19:31:21.744Z,100129.02
2023-01-19T19:36:29.755Z,100137.75
2023-01-19T19:41:37.437Z,100140.46
2023-01-19T19:46:45.019Z,100143.63
2023-01-19T19:51:52.148Z,100149.41
2023-01-19T19:56:59.311Z,100143.82
2023-01-19T20:02:06.577Z,100143.94
2023-01-19T20:07:13.787Z,100153.00
2023-01-19T20:12:20.901Z,100148.90
2023-01-19T20:17:28.020Z,100154.27
2023-01-19T20:22:35.593Z,100164.34
2023-01-19T20:27:44.954Z,100170.89
2023-01-19T20:32:52.533Z,100174.09
2023-01-19T20:38:00.130Z,100178.17
2023-01-19T20:43:08.240Z,100182.73
2023-01-19T20:48:15.502Z,100190.90
2023-01-19T20:53:22.684Z,100197.05
2023-01-19T20:58:31.668Z,100200.41
2023-01-19T21:03:38.871Z,100205.94
2023-01-19T21:08:46.608Z,100218.70
2023-01-19T21:13:56.327Z,100222.30
2023-01-19T21:19:04.021Z,100219.98
2023-01-19T21:24:12.868Z,100226.09
2023-01-19T21:29:20.157Z,100221.45
2023-01-19T21:34:27.318Z,100226.55
2023-01-19T21:39:34.492Z,100233.25
2023-01-19T21:44:41.780Z,100234.56
2023-01-19T21:49:49.077Z,100239.56
2023-01-19T21:54:56.210Z,100239.77
2023-01-19T22:00:03.361Z,100237.82
2023-01-19T22:05:15.575Z,100245.36
2023-01-19T22:10:22.883Z,100255.79
2023-01-19T22:15:31.554Z,100268.27
2023-01-19T22:20:38.766Z,100270.60
2023-01-19T22:25:47.450Z,100263.27
2023-01-19T22:30:54.821Z,100264.65
2023-01-19T22:36:15.053Z,100271.27
2023-01-19T22:41:24.093Z,100278.73
2023-01-19T22:46:33.976Z,100283.42
2023-01-19T22:51:41.180Z,100290.65
2023-01-19T22:56:48.261Z,100300.78
2023-01-19T23:01:55.607Z,100313.35
2023-01-19T23:07:02.847Z,100319.43
2023-01-19T23:12:10.181Z,100329.79
2023-01-19T23:17:17.269Z,100324.36
2023-01-19T23:22:24.438Z,100327.14
2023-01-19T23:27:31.529Z,100327.77
2023-01-19T23:32:38.765Z,100321.66
2023-01-19T23:37:46.057Z,100324.77
2023-01-19T23:42:53.243Z,100335.54
2023-01-19T23:48:00.361Z,100333.66
2023-01-19T23:53:07.449Z,100331.00
2023-01-19T23:58:14.593Z,100332.96
